createdAt,value
2022-10-28T00:02:27.483Z,15.98
2022-10-28T00:05:34.650Z,12.32
2022-10-28T00:08:38.271Z,15.25
2022-10-28T00:11:41.375Z,16.30
2022-10-28T00:15:04.593Z,16.95
2022-10-28T00:18:07.810Z,15.15
2022-10-28T00:21:19.466Z,17.10
2022-10-28T00:24:47.098Z,13.32
2022-10-28T00:27:50.265Z,16.35
2022-10-28T00:30:55.830Z,16.73
2022-10-28T00:34:00.683Z,14.83
2022-10-28T00:37:03.463Z,15.85
2022-10-28T00:40:06.945Z,14.32
2022-10-28T00:43:11.992Z,14.48
2022-10-28T00:46:17.951Z,14.82
2022-10-28T00:49:30.969Z,17.58
2022-10-28T00:52:36.781Z,16.77
2022-10-28T00:55:44.395Z,14.07
2022-10-28T00:58:49.438Z,12.82
2022-10-28T01:01:56.364Z,13.90
2022-10-28T01:04:59.284Z,14.68
2022-10-28T01:08:04.435Z,15.13
2022-10-28T01:11:25.910Z,14.87
2022-10-28T01:14:50.772Z,15.52
2022-10-28T01:18:11.926Z,15.55
2022-10-28T01:21:49.038Z,13.07
2022-10-28T01:25:10.683Z,14.18
2022-10-28T01:28:40.948Z,13.48
2022-10-28T01:32:14.991Z,14.82
2022-10-28T01:38:44.900Z,14.90
2022-10-28T01:41:56.200Z,16.42
2022-10-28T01:45:17.111Z,14.10
2022-10-28T01:48:51.027Z,14.05
2022-10-28T01:52:03.371Z,17.62
2022-10-28T01:55:34.649Z,14.70
2022-10-28T01:58:40.233Z,18.62
2022-10-28T02:01:45.490Z,17.37
2022-10-28T02:04:48.923Z,12.85
2022-10-28T02:07:59.639Z,18.12
2022-10-28T02:11:12.861Z,13.90
2022-10-28T02:14:23.189Z,14.05
2022-10-28T02:17:36.492Z,15.35
2022-10-28T02:20:53.438Z,14.15
2022-10-28T02:24:16.764Z,15.05
2022-10-28T02:27:33.158Z,14.90
2022-10-28T02:30:42.236Z,13.35
2022-10-28T02:33:51.072Z,19.80
2022-10-28T02:37:03.439Z,19.20
2022-10-28T02:40:15.243Z,17.48
2022-10-28T02:43:23.201Z,17.80
2022-10-28T02:49:39.791Z,16.65
2022-10-28T02:52:44.902Z,16.20
2022-10-28T02:55:52.994Z,19.58
2022-10-28T02:58:57.890Z,17.58
2022-10-28T03:02:01.059Z,21.23
2022-10-28T03:05:05.479Z,15.15
2022-10-28T03:08:08.491Z,20.17
2022-10-28T03:11:12.138Z,17.08
2022-10-28T03:14:27.319Z,17.42
2022-10-28T03:17:29.682Z,16.65
2022-10-28T03:20:33.399Z,16.75
2022-10-28T03:23:39.319Z,21.37
2022-10-28T03:26:42.371Z,15.25
2022-10-28T03:29:46.397Z,15.05
2022-10-28T03:32:50.643Z,21.15
2022-10-28T03:35:53.379Z,18.37
2022-10-28T03:38:57.169Z,17.25
2022-10-28T03:42:05.312Z,18.50
2022-10-28T03:45:10.952Z,14.80
2022-10-28T03:48:16.819Z,12.35
2022-10-28T03:51:25.666Z,17.95
2022-10-28T03:54:30.894Z,19.87
2022-10-28T03:57:38.885Z,20.10
2022-10-28T04:00:41.306Z,19.70
2022-10-28T04:03:44.807Z,20.75
2022-10-28T04:06:48.077Z,16.40
2022-10-28T04:09:53.822Z,17.58
2022-10-28T04:13:04.380Z,18.60
2022-10-28T04:16:10.081Z,22.80
2022-10-28T04:19:12.432Z,20.48
2022-10-28T04:22:15.502Z,21.52
2022-10-28T04:25:18.241Z,20.60
2022-10-28T04:28:24.959Z,20.25
2022-10-28T04:31:27.673Z,18.80
2022-10-28T04:34:35.551Z,17.50
2022-10-28T04:37:40.511Z,16.48
2022-10-28T04:40:49.490Z,22.13
2022-10-28T04:43:56.101Z,18.23
2022-10-28T04:47:02.455Z,18.77
2022-10-28T04:50:08.049Z,23.95
2022-10-28T04:53:15.984Z,18.25
2022-10-28T04:56:20.533Z,19.73
2022-10-28T04:59:23.829Z,18.27
2022-10-28T05:02:27.241Z,19.87
2022-10-28T05:05:32.598Z,21.85
2022-10-28T05:08:37.781Z,23.77
2022-10-28T05:11:41.159Z,17.37
2022-10-28T05:14:44.418Z,20.27
2022-10-28T05:17:50.585Z,17.35
2022-10-28T05:20:55.333Z,20.30
2022-10-28T05:24:20.207Z,21.58
2022-10-28T05:27:22.519Z,22.92
2022-10-28T05:30:29.190Z,20.62
2022-10-28T05:33:33.730Z,17.87
2022-10-28T05:36:40.799Z,18.77
2022-10-28T05:39:46.693Z,17.65
2022-10-28T05:42:53.022Z,19.93
2022-10-28T05:45:57.200Z,16.10
2022-10-28T05:49:00.385Z,15.13
2022-10-28T05:52:04.513Z,14.90
2022-10-28T05:55:09.484Z,13.40
2022-10-28T05:58:16.683Z,14.43
2022-10-28T06:01:22.219Z,12.77
2022-10-28T06:07:35.927Z,13.00
2022-10-28T06:10:40.096Z,14.98
2022-10-28T06:13:44.301Z,12.25
2022-10-28T06:16:48.116Z,15.32
2022-10-28T06:19:50.712Z,13.85
2022-10-28T06:22:56.266Z,16.50
2022-10-28T06:26:02.221Z,14.00
2022-10-28T06:29:05.427Z,13.00
2022-10-28T06:32:11.482Z,15.30
2022-10-28T06:35:17.932Z,18.73
2022-10-28T06:38:53.471Z,18.10
2022-10-28T06:42:20.119Z,15.25
2022-10-28T06:45:22.697Z,13.20
2022-10-28T06:51:34.790Z,15.40
2022-10-28T06:54:38.791Z,15.13
2022-10-28T06:57:41.788Z,13.18
2022-10-28T07:01:16.305Z,13.38
2022-10-28T07:04:21.264Z,14.77
2022-10-28T07:07:28.130Z,14.77
2022-10-28T07:10:30.647Z,12.20
2022-10-28T07:13:33.940Z,14.57
2022-10-28T07:16:37.611Z,12.68
2022-10-28T07:19:45.467Z,11.40
2022-10-28T07:22:50.623Z,13.55
2022-10-28T07:25:56.401Z,13.32
2022-10-28T07:28:59.043Z,12.23
2022-10-28T07:32:02.007Z,15.40
2022-10-28T07:35:05.283Z,13.38
2022-10-28T07:38:10.957Z,12.65
2022-10-28T07:41:13.711Z,15.40
2022-10-28T07:44:16.819Z,12.90
2022-10-28T07:47:25.274Z,13.88
2022-10-28T07:50:30.610Z,14.00
2022-10-28T07:53:34.692Z,10.43
2022-10-28T07:56:38.279Z,16.02
2022-10-28T07:59:43.732Z,12.20
2022-10-28T08:03:04.007Z,10.55
2022-10-28T08:06:18.574Z,11.93
2022-10-28T08:09:23.131Z,10.88
2022-10-28T08:12:33.875Z,14.18
2022-10-28T08:15:36.636Z,11.35
2022-10-28T08:19:23.071Z,12.57
2022-10-28T08:22:29.697Z,11.12
2022-10-28T08:25:33.780Z,10.50
2022-10-28T08:28:56.239Z,12.00
2022-10-28T08:32:20.011Z,13.45
2022-10-28T08:35:22.865Z,9.95
2022-10-28T08:38:26.607Z,10.43
2022-10-28T08:41:41.077Z,12.88
2022-10-28T08:45:20.013Z,7.82
2022-10-28T08:48:32.478Z,10.77
2022-10-28T08:52:11.519Z,8.82
2022-10-28T08:55:29.877Z,8.88
2022-10-28T08:58:45.148Z,11.12
2022-10-28T09:01:49.396Z,10.02
2022-10-28T09:05:06.300Z,8.68
2022-10-28T09:08:32.576Z,9.82
2022-10-28T09:12:24.583Z,9.27
2022-10-28T09:16:06.105Z,9.40
2022-10-28T09:19:16.725Z,10.02
2022-10-28T09:22:34.834Z,10.32
2022-10-28T09:26:15.498Z,9.20
2022-10-28T09:29:55.179Z,10.35
2022-10-28T09:33:47.342Z,11.00
2022-10-28T09:37:36.168Z,8.85
2022-10-28T09:40:42.120Z,10.60
2022-10-28T09:44:05.073Z,8.65
2022-10-28T09:47:24.866Z,8.35
2022-10-28T09:50:33.082Z,11.55
2022-10-28T09:54:01.647Z,8.77
2022-10-28T09:57:05.912Z,10.82
2022-10-28T10:00:13.070Z,8.68
2022-10-28T10:03:22.270Z,12.63
2022-10-28T10:06:30.560Z,11.90
2022-10-28T10:09:38.497Z,12.15
2022-10-28T10:12:43.092Z,11.10
2022-10-28T10:15:57.483Z,13.90
2022-10-28T10:19:07.840Z,10.13
2022-10-28T10:22:32.742Z,12.18
2022-10-28T10:25:35.917Z,11.32
2022-10-28T10:28:50.851Z,13.35
2022-10-28T10:32:29.175Z,12.82
2022-10-28T10:35:37.376Z,12.30
2022-10-28T10:38:50.539Z,11.77
2022-10-28T10:41:56.516Z,12.27
2022-10-28T10:45:20.824Z,13.00
2022-10-28T10:51:38.726Z,9.38
2022-10-28T10:54:59.414Z,11.60
2022-10-28T10:58:04.342Z,11.68
2022-10-28T11:01:09.717Z,12.75
2022-10-28T11:04:21.995Z,9.40
2022-10-28T11:07:28.382Z,10.40
2022-10-28T11:10:35.438Z,18.02
2022-10-28T11:13:42.349Z,15.10
2022-10-28T11:17:02.360Z,14.38
2022-10-28T11:20:27.512Z,13.10
2022-10-28T11:23:50.719Z,11.40
2022-10-28T11:27:08.893Z,13.55
2022-10-28T11:30:18.900Z,12.75
2022-10-28T11:33:49.613Z,13.60
2022-10-28T11:37:11.431Z,13.10
2022-10-28T11:40:57.654Z,17.00
2022-10-28T11:44:05.080Z,11.50
2022-10-28T11:47:57.378Z,15.13
2022-10-28T11:51:13.790Z,15.38
2022-10-28T11:54:33.877Z,12.88
2022-10-28T11:57:42.698Z,16.70
2022-10-28T12:00:54.416Z,14.65
2022-10-28T12:04:17.655Z,11.95
2022-10-28T12:08:06.074Z,13.75
2022-10-28T12:12:00.594Z,11.25
2022-10-28T12:15:20.514Z,12.05
2022-10-28T12:18:31.295Z,12.55
2022-10-28T12:21:41.692Z,11.68
2022-10-28T12:25:17.572Z,14.23
2022-10-28T12:28:54.618Z,12.90
2022-10-28T12:31:59.124Z,12.50
2022-10-28T12:35:37.952Z,9.93
2022-10-28T12:39:35.994Z,12.30
2022-10-28T12:42:48.038Z,14.27
2022-10-28T12:45:54.830Z,13.25
2022-10-28T12:49:10.549Z,12.32
2022-10-28T12:52:22.743Z,12.57
2022-10-28T12:55:38.042Z,16.90
2022-10-28T12:58:59.865Z,12.63
2022-10-28T13:02:05.810Z,15.57
2022-10-28T13:08:41.172Z,14.23
2022-10-28T13:12:16.447Z,12.68
2022-10-28T13:15:37.103Z,15.10
2022-10-28T13:19:02.238Z,14.25
2022-10-28T13:22:38.518Z,16.08
2022-10-28T13:26:06.230Z,15.65
2022-10-28T13:29:21.110Z,14.55
2022-10-28T13:32:42.518Z,13.80
2022-10-28T13:35:49.215Z,16.52
2022-10-28T13:38:56.324Z,18.45
2022-10-28T13:42:14.927Z,14.85
2022-10-28T13:45:55.974Z,18.25
2022-10-28T13:49:41.597Z,19.05
2022-10-28T13:52:47.157Z,12.20
2022-10-28T13:56:00.171Z,17.40
2022-10-28T13:59:13.004Z,18.65
2022-10-28T14:02:35.535Z,14.35
2022-10-28T14:05:45.262Z,14.00
2022-10-28T14:08:49.378Z,15.63
2022-10-28T14:12:18.259Z,15.13
2022-10-28T14:15:40.890Z,13.73
2022-10-28T14:19:21.404Z,18.23
2022-10-28T14:22:30.635Z,17.30
2022-10-28T14:25:46.484Z,15.38
2022-10-28T14:28:52.146Z,15.85
2022-10-28T14:31:55.745Z,20.30
2022-10-28T14:35:12.163Z,16.90
2022-10-28T14:38:50.938Z,17.90
2022-10-28T14:42:16.994Z,16.15
2022-10-28T14:45:39.675Z,16.60
2022-10-28T14:48:56.802Z,19.10
2022-10-28T14:52:08.798Z,14.82
2022-10-28T14:55:33.457Z,14.15
2022-10-28T14:59:27.350Z,21.33
2022-10-28T15:02:53.384Z,15.27
2022-10-28T15:06:50.870Z,23.00
2022-10-28T15:10:16.100Z,18.20
2022-10-28T15:13:26.477Z,18.40
2022-10-28T15:16:36.667Z,17.83
2022-10-28T15:19:43.938Z,22.20
2022-10-28T15:22:47.513Z,20.50
2022-10-28T15:26:14.885Z,20.90
2022-10-28T15:29:20.880Z,26.95
2022-10-28T15:32:33.683Z,25.40
2022-10-28T15:35:41.189Z,36.05
2022-10-28T15:39:01.953Z,27.27
2022-10-28T15:42:31.406Z,22.85
2022-10-28T15:45:42.149Z,22.98
2022-10-28T15:48:57.940Z,21.37
2022-10-28T15:52:16.363Z,20.30
2022-10-28T15:56:02.540Z,23.30
2022-10-28T15:59:00.248Z,20.33
2022-10-28T16:02:46.582Z,24.40
2022-10-28T16:05:50.415Z,21.00
2022-10-28T16:09:03.555Z,22.23
2022-10-28T16:12:23.960Z,24.35
2022-10-28T16:15:38.018Z,21.02
2022-10-28T16:18:49.105Z,25.42
2022-10-28T16:21:57.046Z,29.67
2022-10-28T16:25:06.247Z,22.02
2022-10-28T16:28:29.391Z,17.00
2022-10-28T16:32:06.491Z,20.73
2022-10-28T16:35:25.713Z,22.77
2022-10-28T16:38:45.931Z,24.42
2022-10-28T16:42:19.332Z,18.58
2022-10-28T16:45:24.074Z,23.40
2022-10-28T16:49:02.191Z,23.52
2022-10-28T16:52:46.428Z,26.73
2022-10-28T16:56:23.007Z,18.45
2022-10-28T16:59:53.775Z,18.00
2022-10-28T17:03:17.172Z,21.57
2022-10-28T17:07:27.429Z,20.23
2022-10-28T17:11:17.217Z,21.55
2022-10-28T17:14:21.995Z,19.73
2022-10-28T17:17:26.594Z,18.58
2022-10-28T17:20:33.822Z,19.30
2022-10-28T17:23:57.991Z,20.37
2022-10-28T17:27:06.180Z,23.95
2022-10-28T17:30:29.498Z,23.20
2022-10-28T17:33:58.532Z,21.95
2022-10-28T17:37:49.060Z,19.23
2022-10-28T17:41:27.353Z,28.23
2022-10-28T17:44:31.657Z,23.02
2022-10-28T17:47:55.686Z,24.65
2022-10-28T17:51:02.881Z,21.35
2022-10-28T17:54:07.298Z,21.85
2022-10-28T17:57:16.438Z,21.27
2022-10-28T18:00:31.288Z,27.05
2022-10-28T18:03:54.858Z,25.85
2022-10-28T18:06:59.786Z,30.50
2022-10-28T18:10:55.449Z,33.00
2022-10-28T18:14:39.121Z,30.83
2022-10-28T18:18:43.836Z,28.77
2022-10-28T18:22:07.141Z,30.75
2022-10-28T18:25:34.353Z,25.70
2022-10-28T18:28:45.485Z,27.48
2022-10-28T18:31:54.466Z,25.20
2022-10-28T18:35:20.144Z,23.80
2022-10-28T18:38:24.964Z,28.70
2022-10-28T18:42:12.281Z,20.50
2022-10-28T18:45:54.682Z,29.92
2022-10-28T18:49:21.859Z,25.35
2022-10-28T18:52:51.128Z,23.62
2022-10-28T18:56:22.428Z,27.25
2022-10-28T19:00:20.244Z,27.50
2022-10-28T19:03:37.605Z,27.53
2022-10-28T19:11:33.209Z,21.55
2022-10-28T19:15:02.130Z,23.67
2022-10-28T19:22:36.772Z,23.15
2022-10-28T19:26:04.800Z,24.70
2022-10-28T19:29:28.367Z,24.05
2022-10-28T19:33:04.220Z,20.75
2022-10-28T19:36:15.691Z,21.25
2022-10-28T19:43:52.498Z,26.45
2022-10-28T19:47:39.849Z,29.92
2022-10-28T19:51:04.109Z,26.08
2022-10-28T19:55:13.691Z,27.60
2022-10-28T19:58:19.823Z,28.12
2022-10-28T20:01:44.197Z,26.83
2022-10-28T20:04:57.485Z,29.67
2022-10-28T20:08:04.358Z,27.90
2022-10-28T20:11:47.060Z,30.45
2022-10-28T20:15:23.478Z,31.60
2022-10-28T20:19:11.273Z,24.37
2022-10-28T20:22:19.317Z,30.75
2022-10-28T20:26:04.681Z,28.15
2022-10-28T20:29:41.175Z,33.72
2022-10-28T20:32:55.783Z,29.17
2022-10-28T20:40:28.475Z,23.55
2022-10-28T20:43:55.550Z,28.62
2022-10-28T20:47:58.098Z,33.42
2022-10-28T20:51:24.814Z,30.67
2022-10-28T20:55:08.365Z,37.45
2022-10-28T20:58:52.279Z,34.13
2022-10-28T21:07:00.585Z,30.20
2022-10-28T21:10:26.277Z,34.05
2022-10-28T21:14:11.161Z,33.40
2022-10-28T21:17:45.264Z,38.08
2022-10-28T21:21:37.888Z,38.75
2022-10-28T21:24:58.521Z,32.05
2022-10-28T21:28:46.069Z,35.28
2022-10-28T21:32:37.869Z,38.35
2022-10-28T21:36:23.154Z,36.08
2022-10-28T21:39:31.820Z,36.97
2022-10-28T21:42:37.686Z,30.48
2022-10-28T21:45:48.721Z,39.65
2022-10-28T21:49:06.429Z,39.88
2022-10-28T21:52:50.261Z,33.65
2022-10-28T21:56:35.028Z,29.08
2022-10-28T22:00:17.524Z,39.60
2022-10-28T22:04:08.308Z,34.22
2022-10-28T22:07:16.251Z,34.65
2022-10-28T22:10:28.243Z,28.67
2022-10-28T22:14:16.619Z,34.28
2022-10-28T22:17:21.226Z,29.73
2022-10-28T22:20:49.895Z,29.60
2022-10-28T22:24:26.191Z,30.60
2022-10-28T22:30:41.314Z,28.50
2022-10-28T22:34:06.504Z,27.65
2022-10-28T22:37:22.423Z,33.00
2022-10-28T22:41:23.842Z,36.63
2022-10-28T22:44:30.406Z,33.25
2022-10-28T22:47:55.098Z,32.65
2022-10-28T22:50:59.919Z,38.10
2022-10-28T22:54:10.483Z,36.30
2022-10-28T22:57:35.943Z,28.98
2022-10-28T23:00:41.845Z,30.35
2022-10-28T23:03:49.466Z,32.47
2022-10-28T23:07:16.347Z,31.75
2022-10-28T23:10:19.461Z,32.38
2022-10-28T23:13:25.683Z,38.35
2022-10-28T23:16:53.687Z,34.80
2022-10-28T23:19:57.884Z,38.15
2022-10-28T23:23:24.257Z,34.53
2022-10-28T23:26:54.442Z,39.85
2022-10-28T23:30:00.667Z,34.55
2022-10-28T23:33:31.504Z,44.22
2022-10-28T23:36:54.972Z,42.47
2022-10-28T23:40:38.494Z,41.75
2022-10-28T23:44:07.905Z,30.95
2022-10-28T23:47:14.332Z,34.80
2022-10-28T23:50:17.670Z,30.35
2022-10-28T23:53:38.398Z,34.17
2022-10-28T23:57:15.459Z,36.33
